カラチ の空港の天気 - METARとTAF

ジンナー国際空港(カラチ) ( OPKC / KHI ) - パキスタン Karachi
飛行場実況気象(Metar)
観測時間08/17 07:30 PKT (08/17 02:30 UTC)
風向・風速西 8m/s
視程6000m
天気現象
全天の8割程度の雲 雲底高度 610m
気温28℃
湿度74%
気圧1002hPa
METAROPKC 170230Z 26015KT 6000 BKN020 28/23 Q1002 NOSIG
過去の天気等 Google飛行場航空写真 Wunderground天気予報

過去48時間のMETAR

飛行場予報(TAF)
発表時間: 8/17 03:00 PKT (8/16 22:00 UTC)
予報対象時間: 17日5時 PKT ~ 18日11時 PKT
風向・風速西南西 5m/s 瞬間風速 10m/s
視程6,000m
全天の4割程度の雲 雲底高度 910m
17日5時 PKT ~ 17日9時 PKT に一時的に
風向・風速西南西 4m/s
視程5,000m
天気現象煙霧
全天の8割程度の雲 雲底高度 610m
18日0時 PKT ~ 18日2時 PKT に徐々に
風向・風速西南西 4m/s 瞬間風速 9m/s
視程6,000m
全天の8割程度の雲 雲底高度 610m
18日5時 PKT ~ 18日9時 PKT に一時的に
風向・風速西南西 4m/s
視程5,000m
天気現象煙霧
全天の8割程度の雲 雲底高度 610m
TAF OPKC 162200Z 1700/1806 24010G20KT 6000 SCT030
TEMPO 1700/1704 25008KT 5000 HZ BKN020
BECMG 1719/1721 24008G18KT 6000 BKN020
TEMPO 1800/1804 25008KT 5000 HZ BKN020